Country
Station

 

Weather  for  San Jose Del Cabo  -  Mexico    Mexico

  
30 °C (86 °F)
    
 
 

Current METAR for San Jose Del Cabo is :

MMSD 020241Z 30005KT 8SM SKC 30/15 A2985 RMK SLP090 52013 909

 

This is a report for San Jose Del Cabo - Mexico.
 
The report was made 8 hours and 29 minutes ago, at 02:41 UTC .
The wind was blowing at a speed of 2.6 meters per second (5.8 miles per hour) from west/northwest (300°).
 
The temperature was 30 °C (86 °F), with a dew-point at 15 °C (59 °F).
The temperature felt like 29 °C (85 °F).
 
The atmospheric pressure was 1011 hPa (29.85 inHg).
The relative humidity was 40.2%.
 
The sky was clear.
 
The overall visibility was 12.9 kilometers (8.0 miles).
 

 
 
 
 

Country :   A   B   C   D   E   F   G   H   I   J   K   L   M   N   O   P   Q   R   S   T   U   V   W   Y   Z

 

Site Info  |  Disclaimer  |  Credits  |  Privacy
Contact us  |  Add to favorites
© 2013-2020 METARs - All rights reserved